createdAt,value
2022-12-01T00:01:28.204Z,21.80
2022-12-01T00:03:55.598Z,25.00
2022-12-01T00:06:22.910Z,23.07
2022-12-01T00:09:11.444Z,23.58
2022-12-01T00:11:40.346Z,21.97
2022-12-01T00:14:07.882Z,24.33
2022-12-01T00:16:35.200Z,22.43
2022-12-01T00:19:02.735Z,23.20
2022-12-01T00:21:30.183Z,21.70
2022-12-01T00:23:58.560Z,22.70
2022-12-01T00:26:26.673Z,23.03
2022-12-01T00:28:58.796Z,23.47
2022-12-01T00:31:27.305Z,20.50
2022-12-01T00:33:54.933Z,21.80
2022-12-01T00:36:22.915Z,23.20
2022-12-01T00:38:57.172Z,31.98
2022-12-01T00:41:26.278Z,20.70
2022-12-01T00:43:53.670Z,26.90
2022-12-01T00:46:21.412Z,25.17
2022-12-01T00:48:48.776Z,27.10
2022-12-01T00:51:16.348Z,21.93
2022-12-01T00:53:43.723Z,27.00
2022-12-01T00:56:11.176Z,23.40
2022-12-01T00:58:38.660Z,20.93
2022-12-01T01:01:06.318Z,27.43
2022-12-01T01:03:34.087Z,27.03
2022-12-01T01:06:10.616Z,22.77
2022-12-01T01:08:38.630Z,23.10
2022-12-01T01:11:06.985Z,25.83
2022-12-01T01:13:35.079Z,23.77
2022-12-01T01:16:08.389Z,22.00
2022-12-01T01:18:35.812Z,26.43
2022-12-01T01:21:07.629Z,26.80
2022-12-01T01:23:35.325Z,19.80
2022-12-01T01:26:08.520Z,26.30
2022-12-01T01:28:36.111Z,26.67
2022-12-01T01:31:11.846Z,30.47
2022-12-01T01:33:39.312Z,26.10
2022-12-01T01:36:07.499Z,23.50
2022-12-01T01:38:35.223Z,26.03
2022-12-01T01:41:05.481Z,22.97
2022-12-01T01:43:46.744Z,23.40
2022-12-01T01:46:17.894Z,22.90
2022-12-01T01:48:53.764Z,25.40
2022-12-01T01:51:38.617Z,24.17
2022-12-01T01:54:18.484Z,27.13
2022-12-01T01:56:47.935Z,31.87
2022-12-01T01:59:22.955Z,24.77
2022-12-01T02:02:00.392Z,23.73
2022-12-01T02:04:29.372Z,24.53
2022-12-01T02:06:56.760Z,26.30
2022-12-01T02:09:24.897Z,26.80
2022-12-01T02:12:19.966Z,31.60
2022-12-01T02:14:57.805Z,28.23
2022-12-01T02:17:28.190Z,24.67
2022-12-01T02:20:23.999Z,28.63
2022-12-01T02:23:26.438Z,29.37
2022-12-01T02:26:16.135Z,27.07
2022-12-01T02:29:10.977Z,23.97
2022-12-01T02:31:43.232Z,30.30
2022-12-01T02:34:21.791Z,28.87
2022-12-01T02:37:04.487Z,31.53
2022-12-01T02:39:51.245Z,24.43
2022-12-01T02:42:49.920Z,26.00
2022-12-01T02:45:59.328Z,25.87
2022-12-01T02:48:37.332Z,25.70
2022-12-01T02:51:45.449Z,29.50
2022-12-01T02:54:14.601Z,27.30
2022-12-01T02:56:45.250Z,28.57
2022-12-01T02:59:14.997Z,29.63
2022-12-01T03:02:07.578Z,30.03
2022-12-01T03:04:57.110Z,26.50
2022-12-01T03:07:50.986Z,26.93
2022-12-01T03:10:51.434Z,26.83
2022-12-01T03:13:36.339Z,25.17
2022-12-01T03:16:43.890Z,25.63
2022-12-01T03:19:18.701Z,23.03
2022-12-01T03:22:01.511Z,31.30
2022-12-01T03:24:33.297Z,31.07
2022-12-01T03:27:03.196Z,29.10
2022-12-01T03:29:36.644Z,24.63
2022-12-01T03:32:15.723Z,26.80
2022-12-01T03:34:49.692Z,26.87
2022-12-01T03:37:36.465Z,27.40
2022-12-01T03:40:07.940Z,27.33
2022-12-01T03:42:38.654Z,22.00
2022-12-01T03:45:11.953Z,25.70
2022-12-01T03:47:40.516Z,26.30
2022-12-01T03:50:13.287Z,28.90
2022-12-01T03:53:12.224Z,26.37
2022-12-01T03:55:44.127Z,26.67
2022-12-01T03:58:13.570Z,28.50
2022-12-01T04:00:41.877Z,22.63
2022-12-01T04:03:20.691Z,24.73
2022-12-01T04:05:48.071Z,22.73
2022-12-01T04:08:15.490Z,28.27
2022-12-01T04:10:43.114Z,26.57
2022-12-01T04:13:22.467Z,26.17
2022-12-01T04:15:54.197Z,24.50
2022-12-01T04:18:21.577Z,27.93
2022-12-01T04:20:50.058Z,25.40
2022-12-01T04:23:35.788Z,23.53
2022-12-01T04:26:05.162Z,20.70
2022-12-01T04:28:32.568Z,29.00
2022-12-01T04:30:59.931Z,22.80
2022-12-01T04:33:29.169Z,21.60
2022-12-01T04:36:00.601Z,18.73
2022-12-01T04:38:30.812Z,23.53
2022-12-01T04:40:58.744Z,21.33
2022-12-01T04:43:26.125Z,22.23
2022-12-01T04:45:53.537Z,25.20
2022-12-01T04:48:21.468Z,21.53
2022-12-01T04:50:49.677Z,15.13
2022-12-01T04:53:17.157Z,20.60
2022-12-01T04:55:44.527Z,18.27
2022-12-01T04:58:12.019Z,19.90
2022-12-01T05:00:39.587Z,17.90
2022-12-01T05:03:12.092Z,17.10
2022-12-01T05:05:42.615Z,19.73
2022-12-01T05:08:10.952Z,16.90
2022-12-01T05:10:39.003Z,17.77
2022-12-01T05:13:06.479Z,21.23
2022-12-01T05:15:33.820Z,17.93
2022-12-01T05:18:01.237Z,18.13
2022-12-01T05:20:47.139Z,16.27
2022-12-01T05:23:16.932Z,15.37
2022-12-01T05:25:44.547Z,15.73
2022-12-01T05:28:12.369Z,14.03
2022-12-01T05:30:39.727Z,15.03
2022-12-01T05:33:07.596Z,14.43
2022-12-01T05:35:35.057Z,13.50
2022-12-01T05:38:07.869Z,12.77
2022-12-01T05:40:37.157Z,13.43
2022-12-01T05:43:04.721Z,12.33
2022-12-01T05:45:32.792Z,12.50
2022-12-01T05:48:01.986Z,16.30
2022-12-01T05:50:30.485Z,15.37
2022-12-01T05:52:58.332Z,13.30
2022-12-01T05:55:26.088Z,11.07
2022-12-01T05:57:53.495Z,13.10
2022-12-01T06:00:27.301Z,12.27
2022-12-01T06:02:54.968Z,13.80
2022-12-01T06:05:22.429Z,12.43
2022-12-01T06:07:49.786Z,10.17
2022-12-01T06:10:17.365Z,12.17
2022-12-01T06:12:47.919Z,11.97
2022-12-01T06:15:16.218Z,11.83
2022-12-01T06:17:43.739Z,9.83
2022-12-01T06:20:11.865Z,12.17
2022-12-01T06:22:39.549Z,10.60
2022-12-01T06:25:07.486Z,10.83
2022-12-01T06:27:34.964Z,12.93
2022-12-01T06:30:03.146Z,12.10
2022-12-01T06:32:30.828Z,12.23
2022-12-01T06:34:58.514Z,12.20
2022-12-01T06:37:27.630Z,10.03
2022-12-01T06:39:55.112Z,12.33
2022-12-01T06:42:23.236Z,12.73
2022-12-01T06:44:51.124Z,11.50
2022-12-01T06:47:19.004Z,13.50
2022-12-01T06:49:47.244Z,13.40
2022-12-01T06:52:15.387Z,12.47
2022-12-01T06:54:43.434Z,11.47
2022-12-01T06:57:12.041Z,14.87
2022-12-01T06:59:40.114Z,14.10
2022-12-01T07:02:11.667Z,12.53
2022-12-01T07:04:39.322Z,12.37
2022-12-01T07:07:07.713Z,11.47
2022-12-01T07:09:35.528Z,12.37
2022-12-01T07:12:03.286Z,11.53
2022-12-01T07:14:31.854Z,13.40
2022-12-01T07:17:00.465Z,12.03
2022-12-01T07:19:33.171Z,11.60
2022-12-01T07:22:00.942Z,11.93
2022-12-01T07:24:29.416Z,14.63
2022-12-01T07:26:57.183Z,14.80
2022-12-01T07:29:24.651Z,12.33
2022-12-01T07:31:52.662Z,16.50
2022-12-01T07:34:20.111Z,11.50
2022-12-01T07:36:48.158Z,11.73
2022-12-01T07:39:15.895Z,13.07
2022-12-01T07:41:50.151Z,14.60
2022-12-01T07:48:10.158Z,19.10
2022-12-01T07:50:38.006Z,16.97
2022-12-01T07:53:05.617Z,19.00
2022-12-01T07:55:33.161Z,19.10
2022-12-01T07:58:01.185Z,18.27
2022-12-01T08:00:29.063Z,16.83
2022-12-01T08:02:56.649Z,17.10
2022-12-01T08:05:24.031Z,19.87
2022-12-01T08:07:56.777Z,17.57
2022-12-01T08:10:24.448Z,19.53
2022-12-01T08:12:51.896Z,18.93
2022-12-01T08:15:19.473Z,18.07
2022-12-01T08:17:47.107Z,20.47
2022-12-01T08:20:18.437Z,16.70
2022-12-01T08:22:50.019Z,15.93
2022-12-01T08:25:17.792Z,18.73
2022-12-01T08:27:45.628Z,15.73
2022-12-01T08:30:13.874Z,15.37
2022-12-01T08:32:41.682Z,19.67
2022-12-01T08:35:09.733Z,16.33
2022-12-01T08:37:37.297Z,16.07
2022-12-01T08:40:05.795Z,15.40
2022-12-01T08:42:36.893Z,15.67
2022-12-01T08:45:05.607Z,14.53
2022-12-01T08:47:33.087Z,16.00
2022-12-01T08:50:00.843Z,15.83
2022-12-01T08:52:35.183Z,17.10
2022-12-01T08:55:04.563Z,16.67
2022-12-01T08:57:33.326Z,15.83
2022-12-01T09:00:08.486Z,12.87
2022-12-01T09:02:35.966Z,14.87
2022-12-01T09:05:09.231Z,15.60
2022-12-01T09:07:37.861Z,14.77
2022-12-01T09:10:06.310Z,14.33
2022-12-01T09:12:36.810Z,15.23
2022-12-01T09:15:04.732Z,14.10
2022-12-01T09:17:38.649Z,17.40
2022-12-01T09:20:09.675Z,14.37
2022-12-01T09:22:37.888Z,16.57
2022-12-01T09:25:08.572Z,15.90
2022-12-01T09:27:36.630Z,14.20
2022-12-01T09:30:05.699Z,15.53
2022-12-01T09:32:34.812Z,16.37
2022-12-01T09:38:06.136Z,11.47
2022-12-01T09:40:39.723Z,15.03
2022-12-01T09:43:18.530Z,15.03
2022-12-01T09:45:51.820Z,15.70
2022-12-01T09:48:45.179Z,13.80
2022-12-01T09:51:17.470Z,13.70
2022-12-01T09:53:45.650Z,17.83
2022-12-01T09:56:25.745Z,17.90
2022-12-01T09:59:02.190Z,15.93
2022-12-01T10:01:43.130Z,15.20
2022-12-01T10:04:25.795Z,16.47
2022-12-01T10:07:00.097Z,14.50
2022-12-01T10:09:34.085Z,19.20
2022-12-01T10:12:16.873Z,17.83
2022-12-01T10:14:48.981Z,16.27
2022-12-01T10:17:39.762Z,15.80
2022-12-01T10:20:17.465Z,17.90
2022-12-01T10:23:15.882Z,17.47
2022-12-01T10:25:58.731Z,14.53
2022-12-01T10:28:29.086Z,17.53
2022-12-01T10:31:05.098Z,16.07
2022-12-01T10:34:08.107Z,15.93
2022-12-01T10:36:35.630Z,16.93
2022-12-01T10:39:07.420Z,19.53
2022-12-01T10:41:37.930Z,18.97
2022-12-01T10:44:07.580Z,17.47
2022-12-01T10:46:58.069Z,17.43
2022-12-01T10:49:38.224Z,18.07
2022-12-01T10:52:07.036Z,18.93
2022-12-01T10:54:40.451Z,22.80
2022-12-01T10:57:15.796Z,18.50
2022-12-01T10:59:57.948Z,34.57
2022-12-01T11:02:28.430Z,25.10
2022-12-01T11:05:01.187Z,21.80
2022-12-01T11:07:36.454Z,21.27
2022-12-01T11:10:27.320Z,18.17
2022-12-01T11:12:58.244Z,22.60
2022-12-01T11:15:32.422Z,17.50
2022-12-01T11:18:06.265Z,20.60
2022-12-01T11:20:40.615Z,18.47
2022-12-01T11:23:30.610Z,16.93
2022-12-01T11:26:06.718Z,17.57
2022-12-01T11:28:36.472Z,15.20
2022-12-01T11:31:10.322Z,19.80
2022-12-01T11:33:49.461Z,17.10
2022-12-01T11:36:25.248Z,14.80
2022-12-01T11:39:00.379Z,18.70
2022-12-01T11:41:36.971Z,18.70
2022-12-01T11:44:22.418Z,18.80
2022-12-01T11:47:07.796Z,16.03
2022-12-01T11:49:47.447Z,16.00
2022-12-01T11:52:27.588Z,18.80
2022-12-01T11:55:08.457Z,19.77
2022-12-01T11:57:41.372Z,17.70
2022-12-01T12:00:21.780Z,19.33
2022-12-01T12:03:07.944Z,14.93
2022-12-01T12:06:18.233Z,19.67
2022-12-01T12:08:55.545Z,18.43
2022-12-01T12:11:28.797Z,15.53
2022-12-01T12:14:17.843Z,20.33
2022-12-01T12:16:51.953Z,15.77
2022-12-01T12:20:13.921Z,15.17
2022-12-01T12:23:03.970Z,17.43
2022-12-01T12:25:49.769Z,19.13
2022-12-01T12:28:23.273Z,16.60
2022-12-01T12:33:35.862Z,21.30
2022-12-01T12:36:25.457Z,17.37
2022-12-01T12:39:17.003Z,19.33
2022-12-01T12:41:56.407Z,19.60
2022-12-01T12:44:37.590Z,18.67
2022-12-01T12:47:41.638Z,16.83
2022-12-01T12:50:42.808Z,18.47
2022-12-01T12:53:17.646Z,15.93
2022-12-01T12:55:52.631Z,16.60
2022-12-01T12:58:29.011Z,17.00
2022-12-01T13:01:06.207Z,19.27
2022-12-01T13:03:49.302Z,16.80
2022-12-01T13:06:40.413Z,15.87
2022-12-01T13:09:17.570Z,15.17
2022-12-01T13:12:05.480Z,12.23
2022-12-01T13:14:47.979Z,14.40
2022-12-01T13:23:07.931Z,11.23
2022-12-01T13:25:39.787Z,13.67
2022-12-01T13:28:17.498Z,11.90
2022-12-01T13:30:58.814Z,12.03
2022-12-01T13:33:26.369Z,13.37
2022-12-01T13:36:15.436Z,11.43
2022-12-01T13:38:57.208Z,12.50
2022-12-01T13:41:33.334Z,11.80
2022-12-01T13:44:36.468Z,11.83
2022-12-01T13:47:10.725Z,13.60
2022-12-01T13:49:49.983Z,11.73
2022-12-01T13:52:26.508Z,12.60
2022-12-01T13:55:07.857Z,14.20
2022-12-01T13:57:39.660Z,14.03
2022-12-01T14:00:21.821Z,11.77
2022-12-01T14:03:15.083Z,12.73
2022-12-01T14:05:42.399Z,12.33
2022-12-01T14:08:30.691Z,13.80
2022-12-01T14:10:59.739Z,10.40
2022-12-01T14:13:30.005Z,11.30
2022-12-01T14:16:02.937Z,10.33
2022-12-01T14:18:38.019Z,11.63
2022-12-01T14:21:09.399Z,13.80
2022-12-01T14:24:02.906Z,10.07
2022-12-01T14:26:31.175Z,11.53
2022-12-01T14:29:01.568Z,12.87
2022-12-01T14:31:35.176Z,9.80
2022-12-01T14:34:12.139Z,9.50
2022-12-01T14:36:48.616Z,11.30
2022-12-01T14:39:34.738Z,10.00
2022-12-01T14:42:13.032Z,10.70
2022-12-01T14:44:54.433Z,12.00
2022-12-01T14:47:42.435Z,13.17
2022-12-01T14:50:25.269Z,11.87
2022-12-01T14:53:01.543Z,11.37
2022-12-01T14:55:40.515Z,12.10
2022-12-01T14:58:21.239Z,11.33
2022-12-01T15:01:11.499Z,11.13
2022-12-01T15:03:48.485Z,11.33
2022-12-01T15:06:21.847Z,9.77
2022-12-01T15:09:33.964Z,14.73
2022-12-01T15:12:07.516Z,11.83
2022-12-01T15:14:39.441Z,12.63
2022-12-01T15:17:09.075Z,11.47
2022-12-01T15:19:41.970Z,11.93
2022-12-01T15:22:17.515Z,11.63
2022-12-01T15:24:45.800Z,12.73
2022-12-01T15:27:25.797Z,14.00
2022-12-01T15:29:54.034Z,14.10
2022-12-01T15:32:23.800Z,16.60
2022-12-01T15:34:53.665Z,13.77
2022-12-01T15:37:27.145Z,15.43
2022-12-01T15:40:54.208Z,14.40
2022-12-01T15:43:22.913Z,12.00
2022-12-01T15:46:01.587Z,12.43
2022-12-01T15:48:32.870Z,14.00
2022-12-01T15:51:15.631Z,12.67
2022-12-01T15:54:02.039Z,12.50
2022-12-01T15:56:33.849Z,13.80
2022-12-01T15:59:14.875Z,13.00
2022-12-01T16:01:44.408Z,14.77
2022-12-01T16:04:19.415Z,11.33
2022-12-01T16:07:16.202Z,11.67
2022-12-01T16:09:59.399Z,9.87
2022-12-01T16:12:36.487Z,11.17
2022-12-01T16:15:18.904Z,11.70
2022-12-01T16:17:54.101Z,11.07
2022-12-01T16:20:26.131Z,12.23
2022-12-01T16:23:00.094Z,13.30
2022-12-01T16:25:35.000Z,10.37
2022-12-01T16:28:03.868Z,12.73
2022-12-01T16:30:37.491Z,12.00
2022-12-01T16:33:13.613Z,11.87
2022-12-01T16:35:41.194Z,10.83
2022-12-01T16:38:31.851Z,10.20
2022-12-01T16:41:01.273Z,11.90
2022-12-01T16:43:30.091Z,10.43
2022-12-01T16:46:03.332Z,10.10
2022-12-01T16:48:31.886Z,5.17
2022-12-01T16:51:03.791Z,9.73
2022-12-01T16:53:31.240Z,12.23
2022-12-01T16:56:03.406Z,9.97
2022-12-01T16:58:30.960Z,10.47
2022-12-01T17:00:58.864Z,11.83
2022-12-01T17:03:28.523Z,10.13
2022-12-01T17:05:56.214Z,10.20
2022-12-01T17:08:23.537Z,9.77
2022-12-01T17:10:52.153Z,11.07
2022-12-01T17:13:23.463Z,10.13
2022-12-01T17:15:52.998Z,10.63
2022-12-01T17:18:22.424Z,10.60
2022-12-01T17:21:00.830Z,11.73
2022-12-01T17:23:28.692Z,10.50
2022-12-01T17:25:56.091Z,11.30
2022-12-01T17:28:23.637Z,12.50
2022-12-01T17:30:51.067Z,12.90
2022-12-01T17:33:18.483Z,13.03
2022-12-01T17:35:45.938Z,13.97
2022-12-01T17:38:13.370Z,14.27
2022-12-01T17:40:40.710Z,15.13
2022-12-01T17:43:08.635Z,12.33
2022-12-01T17:45:36.033Z,15.90
2022-12-01T17:48:03.569Z,14.37
2022-12-01T17:50:30.907Z,15.03
2022-12-01T17:52:58.404Z,12.20
2022-12-01T17:55:27.802Z,14.70
2022-12-01T17:57:55.255Z,14.40
2022-12-01T18:00:23.412Z,14.03
2022-12-01T18:02:51.139Z,14.63
2022-12-01T18:05:18.705Z,14.13
2022-12-01T18:07:46.182Z,13.00
2022-12-01T18:10:13.695Z,14.60
2022-12-01T18:12:41.242Z,13.13
2022-12-01T18:15:09.180Z,13.07
2022-12-01T18:17:39.642Z,12.57
2022-12-01T18:20:08.132Z,15.57
2022-12-01T18:22:35.706Z,14.63
2022-12-01T18:25:03.715Z,15.77
2022-12-01T18:27:31.663Z,10.63
2022-12-01T18:29:59.115Z,13.10
2022-12-01T18:32:26.591Z,16.37
2022-12-01T18:34:54.041Z,13.87
2022-12-01T18:37:21.389Z,16.37
2022-12-01T18:39:48.800Z,18.60
2022-12-01T18:42:16.293Z,16.43
2022-12-01T18:44:43.793Z,16.70
2022-12-01T18:47:11.239Z,16.40
2022-12-01T18:49:38.754Z,19.47
2022-12-01T18:52:06.112Z,14.00
2022-12-01T18:54:33.575Z,16.63
2022-12-01T18:57:01.021Z,20.30
2022-12-01T18:59:28.932Z,18.83
2022-12-01T19:01:56.510Z,19.70
2022-12-01T19:04:24.039Z,18.80
2022-12-01T19:06:51.421Z,20.07
2022-12-01T19:09:18.970Z,18.37
2022-12-01T19:11:46.543Z,20.07
2022-12-01T19:14:16.715Z,18.23
2022-12-01T19:16:45.051Z,21.13
2022-12-01T19:19:12.678Z,16.23
2022-12-01T19:21:40.831Z,20.43
2022-12-01T19:24:08.427Z,16.03
2022-12-01T19:26:35.783Z,18.50
2022-12-01T19:29:04.006Z,20.03
2022-12-01T19:31:31.438Z,22.53
2022-12-01T19:33:58.843Z,17.57
2022-12-01T19:36:28.079Z,18.30
2022-12-01T19:39:00.415Z,19.27
2022-12-01T19:41:28.219Z,19.37
2022-12-01T19:43:56.501Z,15.70
2022-12-01T19:46:25.831Z,16.33
2022-12-01T19:49:00.258Z,16.73
2022-12-01T19:51:35.403Z,19.27
2022-12-01T19:54:04.215Z,16.53
2022-12-01T19:56:31.893Z,21.63
2022-12-01T19:58:59.998Z,18.23
2022-12-01T20:01:28.488Z,20.37
2022-12-01T20:03:56.418Z,16.27
2022-12-01T20:06:26.669Z,16.87
2022-12-01T20:08:56.854Z,18.90
2022-12-01T20:11:24.384Z,20.87
2022-12-01T20:13:52.217Z,21.53
2022-12-01T20:16:22.124Z,15.03
2022-12-01T20:18:50.823Z,18.77
2022-12-01T20:21:19.893Z,18.13
2022-12-01T20:23:49.642Z,21.27
2022-12-01T20:26:18.907Z,19.50
2022-12-01T20:28:49.207Z,11.87
2022-12-01T20:31:21.454Z,15.77
2022-12-01T20:33:49.852Z,16.23
2022-12-01T20:36:17.527Z,20.03
2022-12-01T20:38:45.079Z,14.30
2022-12-01T20:41:13.071Z,18.30
2022-12-01T20:43:40.866Z,21.90
2022-12-01T20:46:08.908Z,18.67
2022-12-01T20:48:36.509Z,19.60
2022-12-01T20:51:05.865Z,19.93
2022-12-01T20:53:33.255Z,20.43
2022-12-01T20:56:05.837Z,18.77
2022-12-01T20:58:37.464Z,16.43
2022-12-01T21:01:13.970Z,19.10
2022-12-01T21:03:43.196Z,13.33
2022-12-01T21:06:12.685Z,21.30
2022-12-01T21:08:42.116Z,19.87
2022-12-01T21:11:19.900Z,20.73
2022-12-01T21:13:47.409Z,24.40
2022-12-01T21:16:27.405Z,18.60
2022-12-01T21:19:06.584Z,15.23
2022-12-01T21:21:38.640Z,18.30
2022-12-01T21:24:09.580Z,20.33
2022-12-01T21:26:42.518Z,20.83
2022-12-01T21:29:22.771Z,20.40
2022-12-01T21:31:52.813Z,18.97
2022-12-01T21:34:23.011Z,18.57
2022-12-01T21:36:54.568Z,15.37
2022-12-01T21:39:24.235Z,20.33
2022-12-01T21:41:56.659Z,19.13
2022-12-01T21:44:33.058Z,17.03
2022-12-01T21:47:15.384Z,22.93
2022-12-01T21:49:44.668Z,20.53
2022-12-01T21:52:22.425Z,18.93
2022-12-01T21:54:51.574Z,20.73
2022-12-01T21:57:42.936Z,24.20
2022-12-01T22:00:30.648Z,21.47
2022-12-01T22:03:09.882Z,22.70
2022-12-01T22:05:40.610Z,23.83
2022-12-01T22:08:15.243Z,22.23
2022-12-01T22:11:12.870Z,23.97
2022-12-01T22:14:12.928Z,21.17
2022-12-01T22:16:45.696Z,19.43
2022-12-01T22:19:26.826Z,25.00
2022-12-01T22:22:00.914Z,18.47
2022-12-01T22:24:46.644Z,25.47
2022-12-01T22:27:20.196Z,22.47
2022-12-01T22:29:49.249Z,20.30
2022-12-01T22:32:16.533Z,20.97
2022-12-01T22:34:51.187Z,21.60
2022-12-01T22:37:22.444Z,24.73
2022-12-01T22:39:56.945Z,14.63
2022-12-01T22:42:35.242Z,22.83
2022-12-01T22:45:25.544Z,24.73
2022-12-01T22:48:00.353Z,23.67
2022-12-01T22:50:30.933Z,28.27
2022-12-01T22:53:19.404Z,25.93
2022-12-01T22:55:46.919Z,23.33
2022-12-01T22:58:27.825Z,25.53
2022-12-01T23:00:57.941Z,24.30
2022-12-01T23:03:26.704Z,25.17
2022-12-01T23:05:57.605Z,28.40
2022-12-01T23:08:25.343Z,27.83
2022-12-01T23:10:52.745Z,26.53
2022-12-01T23:13:25.390Z,28.93
2022-12-01T23:15:54.363Z,23.87
2022-12-01T23:18:34.180Z,29.27
2022-12-01T23:21:02.967Z,26.70
2022-12-01T23:23:33.379Z,27.17
2022-12-01T23:26:08.647Z,25.13
2022-12-01T23:28:38.672Z,30.17
2022-12-01T23:31:06.252Z,23.97
2022-12-01T23:33:35.155Z,26.73
2022-12-01T23:36:04.929Z,30.10
2022-12-01T23:38:38.441Z,26.37
2022-12-01T23:41:10.843Z,30.20
2022-12-01T23:43:42.130Z,30.20
2022-12-01T23:46:19.393Z,18.00
2022-12-01T23:49:19.379Z,31.10
2022-12-01T23:51:55.222Z,29.17
2022-12-01T23:54:34.259Z,31.63
2022-12-01T23:57:04.132Z,31.73
2022-12-01T23:59:32.158Z,34.13
